sensor_id;sensor_type;location;lat;lon;timestamp;pressure;altitude;pressure_sealevel;temperature;humidity
23321;BME280;33376;51.306;4.752;2023-04-07T00:00:14;101508.59;;;8.23;nan
23321;BME280;33376;51.306;4.752;2023-04-07T00:02:40;101515.13;;;8.13;nan
23321;BME280;33376;51.306;4.752;2023-04-07T00:05:06;101526.50;;;8.14;nan
23321;BME280;33376;51.306;4.752;2023-04-07T00:07:31;101520.59;;;8.07;nan
23321;BME280;33376;51.306;4.752;2023-04-07T00:09:57;101518.91;;;8.05;nan
23321;BME280;33376;51.306;4.752;2023-04-07T00:12:22;101531.16;;;8.07;nan
23321;BME280;33376;51.306;4.752;2023-04-07T00:14:47;101523.84;;;7.89;nan
23321;BME280;33376;51.306;4.752;2023-04-07T00:17:12;101531.00;;;7.86;nan
23321;BME280;33376;51.306;4.752;2023-04-07T00:19:37;101531.72;;;7.91;nan
23321;BME280;33376;51.306;4.752;2023-04-07T00:22:03;101525.72;;;7.86;nan
23321;BME280;33376;51.306;4.752;2023-04-07T00:24:28;101528.41;;;7.84;nan
23321;BME280;33376;51.306;4.752;2023-04-07T00:26:53;101525.50;;;7.92;nan
23321;BME280;33376;51.306;4.752;2023-04-07T00:29:18;101536.03;;;7.93;nan
23321;BME280;33376;51.306;4.752;2023-04-07T00:31:44;101527.31;;;7.91;nan
23321;BME280;33376;51.306;4.752;2023-04-07T00:34:09;101535.13;;;7.94;nan
23321;BME280;33376;51.306;4.752;2023-04-07T00:36:34;101531.78;;;7.89;nan
23321;BME280;33376;51.306;4.752;2023-04-07T00:39:00;101530.47;;;8.02;nan
23321;BME280;33376;51.306;4.752;2023-04-07T00:41:25;101534.09;;;7.98;nan
23321;BME280;33376;51.306;4.752;2023-04-07T00:43:50;101536.91;;;7.94;nan
23321;BME280;33376;51.306;4.752;2023-04-07T00:46:16;101530.78;;;7.92;nan
23321;BME280;33376;51.306;4.752;2023-04-07T00:48:41;101527.38;;;7.88;nan
23321;BME280;33376;51.306;4.752;2023-04-07T00:51:07;101529.84;;;7.94;nan
23321;BME280;33376;51.306;4.752;2023-04-07T00:53:32;101522.63;;;7.99;nan
23321;BME280;33376;51.306;4.752;2023-04-07T00:55:57;101530.63;;;7.96;nan
23321;BME280;33376;51.306;4.752;2023-04-07T00:58:23;101530.78;;;7.92;nan
23321;BME280;33376;51.306;4.752;2023-04-07T01:00:48;101531.88;;;7.86;nan
23321;BME280;33376;51.306;4.752;2023-04-07T01:03:19;101538.16;;;7.82;nan
23321;BME280;33376;51.306;4.752;2023-04-07T01:06:08;101532.81;;;7.84;nan
23321;BME280;33376;51.306;4.752;2023-04-07T01:09:34;101536.47;;;7.80;nan
23321;BME280;33376;51.306;4.752;2023-04-07T01:11:29;101529.28;;;7.85;nan
23321;BME280;33376;51.306;4.752;2023-04-07T01:13:56;101527.47;;;7.85;nan
23321;BME280;33376;51.306;4.752;2023-04-07T01:16:26;101519.00;;;7.76;nan
23321;BME280;33376;51.306;4.752;2023-04-07T01:18:53;101525.31;;;7.72;nan
23321;BME280;33376;51.306;4.752;2023-04-07T01:21:19;101521.69;;;7.74;nan
23321;BME280;33376;51.306;4.752;2023-04-07T01:26:33;101528.00;;;7.70;nan
23321;BME280;33376;51.306;4.752;2023-04-07T01:31:36;101523.38;;;7.77;nan
23321;BME280;33376;51.306;4.752;2023-04-07T01:34:03;101532.34;;;7.71;nan
23321;BME280;33376;51.306;4.752;2023-04-07T01:36:28;101531.63;;;7.66;nan
23321;BME280;33376;51.306;4.752;2023-04-07T01:38:55;101532.50;;;7.67;nan
23321;BME280;33376;51.306;4.752;2023-04-07T01:41:22;101531.09;;;7.55;nan
23321;BME280;33376;51.306;4.752;2023-04-07T01:43:48;101536.28;;;7.58;nan
23321;BME280;33376;51.306;4.752;2023-04-07T01:46:14;101540.72;;;7.58;nan
23321;BME280;33376;51.306;4.752;2023-04-07T01:48:39;101545.31;;;7.51;nan
23321;BME280;33376;51.306;4.752;2023-04-07T01:51:06;101538.81;;;7.61;nan
23321;BME280;33376;51.306;4.752;2023-04-07T01:53:31;101540.38;;;7.68;nan
23321;BME280;33376;51.306;4.752;2023-04-07T01:56:01;101540.63;;;7.61;nan
23321;BME280;33376;51.306;4.752;2023-04-07T01:58:27;101546.69;;;7.35;nan
23321;BME280;33376;51.306;4.752;2023-04-07T02:00:52;101537.91;;;7.34;nan
23321;BME280;33376;51.306;4.752;2023-04-07T02:03:19;101545.59;;;7.42;nan
23321;BME280;33376;51.306;4.752;2023-04-07T02:05:46;101546.13;;;7.25;nan
23321;BME280;33376;51.306;4.752;2023-04-07T02:08:11;101547.78;;;7.28;nan
23321;BME280;33376;51.306;4.752;2023-04-07T02:10:40;101554.81;;;7.29;nan
23321;BME280;33376;51.306;4.752;2023-04-07T02:13:06;101544.84;;;7.38;nan
23321;BME280;33376;51.306;4.752;2023-04-07T02:15:33;101552.22;;;7.26;nan
23321;BME280;33376;51.306;4.752;2023-04-07T02:17:58;101544.38;;;7.24;nan
23321;BME280;33376;51.306;4.752;2023-04-07T02:20:24;101549.88;;;7.17;nan
23321;BME280;33376;51.306;4.752;2023-04-07T02:22:49;101550.31;;;7.31;nan
23321;BME280;33376;51.306;4.752;2023-04-07T02:25:22;101548.00;;;7.20;nan
23321;BME280;33376;51.306;4.752;2023-04-07T02:27:47;101558.91;;;7.10;nan
23321;BME280;33376;51.306;4.752;2023-04-07T02:30:13;101565.06;;;7.09;nan
23321;BME280;33376;51.306;4.752;2023-04-07T02:32:38;101566.97;;;7.04;nan
23321;BME280;33376;51.306;4.752;2023-04-07T02:35:03;101564.03;;;7.14;nan
23321;BME280;33376;51.306;4.752;2023-04-07T02:37:29;101553.56;;;7.11;nan
23321;BME280;33376;51.306;4.752;2023-04-07T02:39:54;101554.91;;;6.95;nan
23321;BME280;33376;51.306;4.752;2023-04-07T02:42:19;101564.41;;;7.01;nan
23321;BME280;33376;51.306;4.752;2023-04-07T02:44:45;101565.28;;;7.01;nan
23321;BME280;33376;51.306;4.752;2023-04-07T02:47:10;101563.75;;;6.93;nan
23321;BME280;33376;51.306;4.752;2023-04-07T02:49:35;101572.03;;;6.81;nan
23321;BME280;33376;51.306;4.752;2023-04-07T02:52:01;101569.44;;;6.79;nan
23321;BME280;33376;51.306;4.752;2023-04-07T02:54:26;101572.06;;;6.79;nan
23321;BME280;33376;51.306;4.752;2023-04-07T02:56:51;101578.34;;;6.74;nan
23321;BME280;33376;51.306;4.752;2023-04-07T02:59:16;101583.63;;;6.74;nan
23321;BME280;33376;51.306;4.752;2023-04-07T03:01:41;101577.56;;;6.70;nan
23321;BME280;33376;51.306;4.752;2023-04-07T03:04:07;101578.41;;;6.72;nan
23321;BME280;33376;51.306;4.752;2023-04-07T03:06:32;101575.16;;;6.63;nan
23321;BME280;33376;51.306;4.752;2023-04-07T03:08:58;101584.19;;;6.53;nan
23321;BME280;33376;51.306;4.752;2023-04-07T03:11:23;101576.25;;;6.54;nan
23321;BME280;33376;51.306;4.752;2023-04-07T03:13:48;101580.34;;;6.66;nan
23321;BME280;33376;51.306;4.752;2023-04-07T03:16:13;101583.63;;;6.74;nan
23321;BME280;33376;51.306;4.752;2023-04-07T03:18:39;101583.06;;;6.63;nan
23321;BME280;33376;51.306;4.752;2023-04-07T03:21:04;101585.56;;;6.67;nan
23321;BME280;33376;51.306;4.752;2023-04-07T03:23:30;101597.22;;;6.59;nan
23321;BME280;33376;51.306;4.752;2023-04-07T03:25:55;101587.63;;;6.56;nan
23321;BME280;33376;51.306;4.752;2023-04-07T03:28:21;101589.25;;;6.62;nan
23321;BME280;33376;51.306;4.752;2023-04-07T03:30:47;101582.38;;;6.55;nan
23321;BME280;33376;51.306;4.752;2023-04-07T03:33:12;101587.09;;;6.44;nan
23321;BME280;33376;51.306;4.752;2023-04-07T03:35:37;101590.75;;;6.37;nan
23321;BME280;33376;51.306;4.752;2023-04-07T03:38:04;101582.84;;;6.37;nan
23321;BME280;33376;51.306;4.752;2023-04-07T03:40:29;101580.84;;;6.46;nan
23321;BME280;33376;51.306;4.752;2023-04-07T03:42:57;101592.59;;;6.35;nan
23321;BME280;33376;51.306;4.752;2023-04-07T03:45:25;101580.06;;;6.44;nan
23321;BME280;33376;51.306;4.752;2023-04-07T03:47:50;101580.22;;;6.37;nan
23321;BME280;33376;51.306;4.752;2023-04-07T03:50:18;101578.78;;;6.25;nan
23321;BME280;33376;51.306;4.752;2023-04-07T03:52:43;101584.69;;;6.35;nan
23321;BME280;33376;51.306;4.752;2023-04-07T03:55:09;101595.44;;;6.26;nan
23321;BME280;33376;51.306;4.752;2023-04-07T03:57:37;101592.03;;;6.22;nan
23321;BME280;33376;51.306;4.752;2023-04-07T04:00:03;101600.91;;;6.18;nan
23321;BME280;33376;51.306;4.752;2023-04-07T04:02:31;101604.34;;;6.22;nan
23321;BME280;33376;51.306;4.752;2023-04-07T04:05:00;101600.19;;;6.12;nan
23321;BME280;33376;51.306;4.752;2023-04-07T04:07:33;101597.38;;;6.18;nan
23321;BME280;33376;51.306;4.752;2023-04-07T04:10:00;101608.03;;;6.13;nan
23321;BME280;33376;51.306;4.752;2023-04-07T04:12:25;101609.84;;;6.11;nan
23321;BME280;33376;51.306;4.752;2023-04-07T04:14:51;101614.31;;;6.09;nan
23321;BME280;33376;51.306;4.752;2023-04-07T04:17:16;101606.56;;;6.02;nan
23321;BME280;33376;51.306;4.752;2023-04-07T04:19:41;101607.63;;;5.94;nan
23321;BME280;33376;51.306;4.752;2023-04-07T04:22:06;101604.22;;;5.89;nan
23321;BME280;33376;51.306;4.752;2023-04-07T04:24:31;101605.00;;;5.94;nan
23321;BME280;33376;51.306;4.752;2023-04-07T04:26:57;101612.03;;;5.94;nan
23321;BME280;33376;51.306;4.752;2023-04-07T04:29:22;101607.56;;;5.97;nan
23321;BME280;33376;51.306;4.752;2023-04-07T04:31:47;101608.78;;;5.83;nan
23321;BME280;33376;51.306;4.752;2023-04-07T04:34:12;101611.03;;;5.60;nan
23321;BME280;33376;51.306;4.752;2023-04-07T04:36:38;101611.88;;;5.60;nan
23321;BME280;33376;51.306;4.752;2023-04-07T04:39:05;101605.13;;;5.50;nan
23321;BME280;33376;51.306;4.752;2023-04-07T04:41:30;101613.94;;;5.46;nan
23321;BME280;33376;51.306;4.752;2023-04-07T04:43:55;101616.78;;;5.37;nan
23321;BME280;33376;51.306;4.752;2023-04-07T04:46:21;101619.34;;;5.40;nan
23321;BME280;33376;51.306;4.752;2023-04-07T04:48:46;101621.25;;;5.34;nan
23321;BME280;33376;51.306;4.752;2023-04-07T04:51:11;101628.25;;;5.33;nan
23321;BME280;33376;51.306;4.752;2023-04-07T04:53:36;101620.34;;;5.35;nan
23321;BME280;33376;51.306;4.752;2023-04-07T04:56:01;101624.66;;;5.39;nan
23321;BME280;33376;51.306;4.752;2023-04-07T04:58:27;101625.75;;;5.27;nan
23321;BME280;33376;51.306;4.752;2023-04-07T05:00:52;101621.44;;;5.25;nan
23321;BME280;33376;51.306;4.752;2023-04-07T05:03:23;101633.50;;;5.33;nan
23321;BME280;33376;51.306;4.752;2023-04-07T05:05:51;101629.13;;;5.34;nan
23321;BME280;33376;51.306;4.752;2023-04-07T05:08:17;101633.53;;;5.32;nan
23321;BME280;33376;51.306;4.752;2023-04-07T05:10:42;101638.91;;;5.27;nan
23321;BME280;33376;51.306;4.752;2023-04-07T05:13:07;101636.41;;;5.21;nan
23321;BME280;33376;51.306;4.752;2023-04-07T05:15:32;101625.75;;;5.27;nan
23321;BME280;33376;51.306;4.752;2023-04-07T05:17:57;101629.88;;;5.40;nan
23321;BME280;33376;51.306;4.752;2023-04-07T05:20:23;101625.94;;;5.59;nan
23321;BME280;33376;51.306;4.752;2023-04-07T05:22:48;101633.66;;;5.67;nan
23321;BME280;33376;51.306;4.752;2023-04-07T05:25:13;101634.91;;;5.90;nan
23321;BME280;33376;51.306;4.752;2023-04-07T05:27:38;101623.38;;;5.96;nan
23321;BME280;33376;51.306;4.752;2023-04-07T05:30:04;101609.06;;;6.08;nan
23321;BME280;33376;51.306;4.752;2023-04-07T05:32:29;101604.41;;;6.19;nan
23321;BME280;33376;51.306;4.752;2023-04-07T05:34:54;101610.41;;;6.25;nan
23321;BME280;33376;51.306;4.752;2023-04-07T05:37:20;101602.88;;;6.44;nan
23321;BME280;33376;51.306;4.752;2023-04-07T05:39:45;101606.31;;;6.47;nan
23321;BME280;33376;51.306;4.752;2023-04-07T05:42:10;101610.03;;;6.39;nan
23321;BME280;33376;51.306;4.752;2023-04-07T05:44:36;101614.34;;;6.43;nan
23321;BME280;33376;51.306;4.752;2023-04-07T05:47:01;101608.94;;;6.47;nan
23321;BME280;33376;51.306;4.752;2023-04-07T05:49:29;101615.25;;;6.40;nan
23321;BME280;33376;51.306;4.752;2023-04-07T05:51:55;101600.84;;;6.55;nan
23321;BME280;33376;51.306;4.752;2023-04-07T05:54:20;101603.28;;;6.61;nan
23321;BME280;33376;51.306;4.752;2023-04-07T05:56:45;101613.69;;;6.67;nan
23321;BME280;33376;51.306;4.752;2023-04-07T05:59:11;101609.84;;;6.78;nan
23321;BME280;33376;51.306;4.752;2023-04-07T06:01:36;101611.81;;;6.70;nan
23321;BME280;33376;51.306;4.752;2023-04-07T06:04:01;101602.72;;;6.82;nan
23321;BME280;33376;51.306;4.752;2023-04-07T06:06:27;101600.75;;;6.90;nan
23321;BME280;33376;51.306;4.752;2023-04-07T06:08:52;101599.88;;;6.89;nan
23321;BME280;33376;51.306;4.752;2023-04-07T06:11:18;101590.81;;;6.99;nan
23321;BME280;33376;51.306;4.752;2023-04-07T06:13:43;101601.19;;;7.05;nan
23321;BME280;33376;51.306;4.752;2023-04-07T06:16:08;101590.91;;;7.27;nan
23321;BME280;33376;51.306;4.752;2023-04-07T06:18:33;101593.22;;;7.37;nan
23321;BME280;33376;51.306;4.752;2023-04-07T06:20:59;101587.75;;;7.43;nan
23321;BME280;33376;51.306;4.752;2023-04-07T06:23:24;101596.88;;;7.61;nan
23321;BME280;33376;51.306;4.752;2023-04-07T06:25:49;101590.72;;;7.90;nan
23321;BME280;33376;51.306;4.752;2023-04-07T06:28:17;101598.34;;;7.99;nan
23321;BME280;33376;51.306;4.752;2023-04-07T06:30:42;101596.84;;;8.18;nan
23321;BME280;33376;51.306;4.752;2023-04-07T06:33:07;101597.59;;;8.47;nan
23321;BME280;33376;51.306;4.752;2023-04-07T06:35:33;101597.03;;;8.64;nan
23321;BME280;33376;51.306;4.752;2023-04-07T06:37:58;101597.97;;;8.87;nan
23321;BME280;33376;51.306;4.752;2023-04-07T06:40:23;101597.66;;;9.20;nan
23321;BME280;33376;51.306;4.752;2023-04-07T06:42:48;101592.97;;;9.72;nan
23321;BME280;33376;51.306;4.752;2023-04-07T06:45:14;101591.97;;;10.19;nan
23321;BME280;33376;51.306;4.752;2023-04-07T06:47:39;101598.44;;;10.54;nan
23321;BME280;33376;51.306;4.752;2023-04-07T06:50:04;101601.97;;;10.75;nan
23321;BME280;33376;51.306;4.752;2023-04-07T06:52:30;101625.50;;;10.62;nan
23321;BME280;33376;51.306;4.752;2023-04-07T06:54:55;101634.38;;;11.01;nan
23321;BME280;33376;51.306;4.752;2023-04-07T06:57:21;101642.94;;;11.28;nan
23321;BME280;33376;51.306;4.752;2023-04-07T06:59:46;101663.34;;;11.07;nan
23321;BME280;33376;51.306;4.752;2023-04-07T07:02:11;101683.28;;;11.16;nan
23321;BME280;33376;51.306;4.752;2023-04-07T07:04:36;101701.69;;;10.79;nan
23321;BME280;33376;51.306;4.752;2023-04-07T07:07:02;101709.84;;;10.74;nan
23321;BME280;33376;51.306;4.752;2023-04-07T07:09:28;101721.81;;;10.84;nan
23321;BME280;33376;51.306;4.752;2023-04-07T07:11:53;101730.03;;;10.78;nan
23321;BME280;33376;51.306;4.752;2023-04-07T07:14:18;101735.75;;;10.68;nan
23321;BME280;33376;51.306;4.752;2023-04-07T07:16:43;101747.50;;;10.62;nan
23321;BME280;33376;51.306;4.752;2023-04-07T07:19:08;101729.91;;;10.81;nan
23321;BME280;33376;51.306;4.752;2023-04-07T07:21:34;101744.88;;;11.04;nan
23321;BME280;33376;51.306;4.752;2023-04-07T07:23:59;101745.97;;;10.98;nan
23321;BME280;33376;51.306;4.752;2023-04-07T07:26:24;101753.59;;;11.06;nan
23321;BME280;33376;51.306;4.752;2023-04-07T07:28:50;101766.78;;;10.87;nan
23321;BME280;33376;51.306;4.752;2023-04-07T07:31:15;101774.47;;;10.93;nan
23321;BME280;33376;51.306;4.752;2023-04-07T07:33:41;101775.34;;;10.94;nan
23321;BME280;33376;51.306;4.752;2023-04-07T07:36:08;101771.69;;;10.96;nan
23321;BME280;33376;51.306;4.752;2023-04-07T07:38:33;101791.59;;;10.86;nan
23321;BME280;33376;51.306;4.752;2023-04-07T07:40:58;101798.50;;;10.90;nan
23321;BME280;33376;51.306;4.752;2023-04-07T07:43:24;101799.56;;;10.86;nan
23321;BME280;33376;51.306;4.752;2023-04-07T07:45:49;101801.34;;;10.64;nan
23321;BME280;33376;51.306;4.752;2023-04-07T07:48:14;101800.31;;;10.90;nan
23321;BME280;33376;51.306;4.752;2023-04-07T07:50:39;101798.78;;;11.04;nan
23321;BME280;33376;51.306;4.752;2023-04-07T07:53:05;101805.34;;;10.96;nan
23321;BME280;33376;51.306;4.752;2023-04-07T07:55:30;101820.34;;;10.75;nan
23321;BME280;33376;51.306;4.752;2023-04-07T07:57:55;101821.44;;;10.70;nan
23321;BME280;33376;51.306;4.752;2023-04-07T08:00:20;101820.50;;;10.71;nan
23321;BME280;33376;51.306;4.752;2023-04-07T08:02:47;101826.38;;;10.79;nan
23321;BME280;33376;51.306;4.752;2023-04-07T08:05:13;101818.25;;;10.83;nan
23321;BME280;33376;51.306;4.752;2023-04-07T08:07:38;101824.78;;;10.75;nan
23321;BME280;33376;51.306;4.752;2023-04-07T08:10:03;101830.72;;;10.81;nan
23321;BME280;33376;51.306;4.752;2023-04-07T08:12:29;101832.13;;;11.11;nan
23321;BME280;33376;51.306;4.752;2023-04-07T08:14:54;101828.94;;;11.23;nan
23321;BME280;33376;51.306;4.752;2023-04-07T08:17:19;101845.34;;;11.33;nan
23321;BME280;33376;51.306;4.752;2023-04-07T08:19:45;101876.16;;;11.17;nan
23321;BME280;33376;51.306;4.752;2023-04-07T08:22:10;101892.09;;;10.94;nan
23321;BME280;33376;51.306;4.752;2023-04-07T08:24:35;101898.59;;;11.30;nan
23321;BME280;33376;51.306;4.752;2023-04-07T08:27:00;101912.00;;;11.05;nan
23321;BME280;33376;51.306;4.752;2023-04-07T08:29:26;101915.88;;;10.97;nan
23321;BME280;33376;51.306;4.752;2023-04-07T08:31:51;101932.66;;;10.74;nan
23321;BME280;33376;51.306;4.752;2023-04-07T08:34:16;101930.78;;;10.78;nan
23321;BME280;33376;51.306;4.752;2023-04-07T08:36:42;101937.19;;;10.72;nan
23321;BME280;33376;51.306;4.752;2023-04-07T08:39:08;101936.94;;;10.55;nan
23321;BME280;33376;51.306;4.752;2023-04-07T08:41:37;101934.69;;;10.68;nan
23321;BME280;33376;51.306;4.752;2023-04-07T08:44:02;101932.56;;;10.54;nan
23321;BME280;33376;51.306;4.752;2023-04-07T08:46:28;101946.31;;;10.41;nan
23321;BME280;33376;51.306;4.752;2023-04-07T08:48:54;101947.47;;;10.57;nan
23321;BME280;33376;51.306;4.752;2023-04-07T08:51:26;101945.88;;;10.53;nan
23321;BME280;33376;51.306;4.752;2023-04-07T08:53:52;101946.47;;;10.61;nan
23321;BME280;33376;51.306;4.752;2023-04-07T08:56:18;101953.38;;;10.65;nan
23321;BME280;33376;51.306;4.752;2023-04-07T08:58:46;101954.25;;;10.65;nan
23321;BME280;33376;51.306;4.752;2023-04-07T09:01:11;101955.25;;;10.61;nan
23321;BME280;33376;51.306;4.752;2023-04-07T09:03:37;101962.44;;;10.59;nan
23321;BME280;33376;51.306;4.752;2023-04-07T09:06:02;101965.03;;;10.84;nan
23321;BME280;33376;51.306;4.752;2023-04-07T09:08:28;101972.00;;;10.86;nan
23321;BME280;33376;51.306;4.752;2023-04-07T09:10:53;101984.59;;;10.57;nan
23321;BME280;33376;51.306;4.752;2023-04-07T09:13:19;101983.81;;;10.55;nan
23321;BME280;33376;51.306;4.752;2023-04-07T09:15:44;101981.72;;;10.40;nan
23321;BME280;33376;51.306;4.752;2023-04-07T09:18:10;101981.00;;;10.59;nan
23321;BME280;33376;51.306;4.752;2023-04-07T09:25:53;101968.00;;;11.42;nan
23321;BME280;33376;51.306;4.752;2023-04-07T09:28:18;101976.00;;;11.64;nan
23321;BME280;33376;51.306;4.752;2023-04-07T09:30:51;101977.59;;;11.90;nan
23321;BME280;33376;51.306;4.752;2023-04-07T09:33:16;101992.09;;;11.59;nan
23321;BME280;33376;51.306;4.752;2023-04-07T09:35:50;102005.22;;;11.19;nan
23321;BME280;33376;51.306;4.752;2023-04-07T09:38:17;102014.69;;;11.03;nan
23321;BME280;33376;51.306;4.752;2023-04-07T09:40:42;102009.75;;;10.94;nan
23321;BME280;33376;51.306;4.752;2023-04-07T09:43:13;102009.47;;;11.23;nan
23321;BME280;33376;51.306;4.752;2023-04-07T09:45:38;102007.28;;;11.56;nan
23321;BME280;33376;51.306;4.752;2023-04-07T09:48:07;102011.03;;;11.50;nan
23321;BME280;33376;51.306;4.752;2023-04-07T09:50:33;102012.16;;;12.10;nan
23321;BME280;33376;51.306;4.752;2023-04-07T09:52:59;102022.28;;;11.80;nan
23321;BME280;33376;51.306;4.752;2023-04-07T09:55:25;102021.81;;;12.32;nan
23321;BME280;33376;51.306;4.752;2023-04-07T09:57:53;102025.13;;;12.37;nan
23321;BME280;33376;51.306;4.752;2023-04-07T10:00:22;102024.38;;;12.94;nan
23321;BME280;33376;51.306;4.752;2023-04-07T10:02:47;102018.53;;;12.26;nan
23321;BME280;33376;51.306;4.752;2023-04-07T10:05:14;102023.56;;;12.33;nan
23321;BME280;33376;51.306;4.752;2023-04-07T10:07:40;102017.78;;;12.24;nan
23321;BME280;33376;51.306;4.752;2023-04-07T10:10:05;102015.13;;;11.82;nan
23321;BME280;33376;51.306;4.752;2023-04-07T10:12:33;102007.63;;;11.92;nan
23321;BME280;33376;51.306;4.752;2023-04-07T10:14:58;102024.25;;;11.75;nan
23321;BME280;33376;51.306;4.752;2023-04-07T10:17:25;102030.34;;;11.99;nan
23321;BME280;33376;51.306;4.752;2023-04-07T10:19:52;102025.56;;;11.87;nan
23321;BME280;33376;51.306;4.752;2023-04-07T10:22:18;102030.94;;;11.62;nan
23321;BME280;33376;51.306;4.752;2023-04-07T10:25:01;102036.69;;;11.51;nan
23321;BME280;33376;51.306;4.752;2023-04-07T10:27:30;102042.66;;;11.79;nan
23321;BME280;33376;51.306;4.752;2023-04-07T10:29:56;102054.28;;;11.99;nan
23321;BME280;33376;51.306;4.752;2023-04-07T10:32:22;102061.19;;;12.03;nan
23321;BME280;33376;51.306;4.752;2023-04-07T10:37:19;102059.97;;;11.90;nan
23321;BME280;33376;51.306;4.752;2023-04-07T10:39:47;102065.75;;;11.77;nan
23321;BME280;33376;51.306;4.752;2023-04-07T10:44:56;102083.78;;;11.71;nan
23321;BME280;33376;51.306;4.752;2023-04-07T10:47:23;102106.19;;;10.93;nan
23321;BME280;33376;51.306;4.752;2023-04-07T10:52:47;102122.38;;;10.86;nan
23321;BME280;33376;51.306;4.752;2023-04-07T10:55:29;102123.44;;;10.80;nan
23321;BME280;33376;51.306;4.752;2023-04-07T11:00:39;102125.09;;;10.84;nan
23321;BME280;33376;51.306;4.752;2023-04-07T11:03:11;102115.50;;;11.05;nan
23321;BME280;33376;51.306;4.752;2023-04-07T11:05:37;102120.91;;;11.26;nan
23321;BME280;33376;51.306;4.752;2023-04-07T11:08:02;102119.13;;;11.25;nan
23321;BME280;33376;51.306;4.752;2023-04-07T11:10:30;102118.69;;;11.84;nan
23321;BME280;33376;51.306;4.752;2023-04-07T11:13:03;102110.28;;;11.94;nan
23321;BME280;33376;51.306;4.752;2023-04-07T11:15:29;102095.00;;;11.99;nan
23321;BME280;33376;51.306;4.752;2023-04-07T11:20:51;102083.38;;;12.02;nan
23321;BME280;33376;51.306;4.752;2023-04-07T11:23:18;102048.03;;;11.78;nan
23321;BME280;33376;51.306;4.752;2023-04-07T11:25:44;102049.63;;;12.25;nan
23321;BME280;33376;51.306;4.752;2023-04-07T11:28:10;102016.78;;;12.05;nan
23321;BME280;33376;51.306;4.752;2023-04-07T11:30:37;102004.13;;;12.51;nan
23321;BME280;33376;51.306;4.752;2023-04-07T11:33:02;101993.16;;;12.39;nan
23321;BME280;33376;51.306;4.752;2023-04-07T11:35:28;102000.25;;;12.58;nan
23321;BME280;33376;51.306;4.752;2023-04-07T11:37:56;101974.63;;;12.17;nan
23321;BME280;33376;51.306;4.752;2023-04-07T11:40:35;101984.88;;;12.05;nan
23321;BME280;33376;51.306;4.752;2023-04-07T11:43:01;102011.44;;;12.26;nan
23321;BME280;33376;51.306;4.752;2023-04-07T11:45:27;102011.31;;;12.09;nan
23321;BME280;33376;51.306;4.752;2023-04-07T11:47:52;102031.97;;;11.81;nan
23321;BME280;33376;51.306;4.752;2023-04-07T11:50:36;102062.88;;;11.60;nan
23321;BME280;33376;51.306;4.752;2023-04-07T11:53:01;102077.81;;;11.41;nan
23321;BME280;33376;51.306;4.752;2023-04-07T11:55:26;102077.00;;;11.39;nan
23321;BME280;33376;51.306;4.752;2023-04-07T11:57:53;102098.53;;;11.55;nan
23321;BME280;33376;51.306;4.752;2023-04-07T12:00:18;102118.59;;;11.63;nan
23321;BME280;33376;51.306;4.752;2023-04-07T12:02:44;102116.63;;;11.68;nan
23321;BME280;33376;51.306;4.752;2023-04-07T12:05:09;102124.28;;;11.76;nan
23321;BME280;33376;51.306;4.752;2023-04-07T12:07:35;102127.72;;;12.01;nan
23321;BME280;33376;51.306;4.752;2023-04-07T12:12:44;102041.34;;;13.30;nan
23321;BME280;33376;51.306;4.752;2023-04-07T12:15:10;102021.22;;;13.96;nan
23321;BME280;33376;51.306;4.752;2023-04-07T12:17:35;101996.59;;;13.55;nan
23321;BME280;33376;51.306;4.752;2023-04-07T12:20:00;101987.34;;;12.88;nan
23321;BME280;33376;51.306;4.752;2023-04-07T12:22:26;102009.97;;;12.59;nan
23321;BME280;33376;51.306;4.752;2023-04-07T12:24:52;102029.59;;;11.95;nan
23321;BME280;33376;51.306;4.752;2023-04-07T12:27:17;102056.69;;;11.83;nan
23321;BME280;33376;51.306;4.752;2023-04-07T12:29:42;102088.03;;;11.52;nan
23321;BME280;33376;51.306;4.752;2023-04-07T12:32:08;102102.56;;;11.88;nan
23321;BME280;33376;51.306;4.752;2023-04-07T12:34:33;102117.31;;;11.73;nan
23321;BME280;33376;51.306;4.752;2023-04-07T12:37:01;102123.06;;;11.85;nan
23321;BME280;33376;51.306;4.752;2023-04-07T12:39:26;102131.78;;;12.10;nan
23321;BME280;33376;51.306;4.752;2023-04-07T12:41:52;102132.91;;;12.04;nan
23321;BME280;33376;51.306;4.752;2023-04-07T12:44:17;102110.41;;;11.91;nan
23321;BME280;33376;51.306;4.752;2023-04-07T12:46:42;102100.19;;;12.02;nan
23321;BME280;33376;51.306;4.752;2023-04-07T12:49:08;102089.44;;;12.27;nan
23321;BME280;33376;51.306;4.752;2023-04-07T12:51:33;102070.03;;;12.03;nan
23321;BME280;33376;51.306;4.752;2023-04-07T12:53:58;102068.69;;;12.55;nan
23321;BME280;33376;51.306;4.752;2023-04-07T12:56:25;102080.78;;;13.02;nan
23321;BME280;33376;51.306;4.752;2023-04-07T12:58:50;102079.97;;;12.40;nan
23321;BME280;33376;51.306;4.752;2023-04-07T13:01:15;102093.78;;;12.49;nan
23321;BME280;33376;51.306;4.752;2023-04-07T13:03:40;102130.44;;;12.00;nan
23321;BME280;33376;51.306;4.752;2023-04-07T13:06:06;102140.81;;;11.61;nan
23321;BME280;33376;51.306;4.752;2023-04-07T13:08:31;102158.00;;;11.51;nan
23321;BME280;33376;51.306;4.752;2023-04-07T13:10:56;102166.03;;;11.49;nan
23321;BME280;33376;51.306;4.752;2023-04-07T13:13:21;102182.91;;;11.48;nan
23321;BME280;33376;51.306;4.752;2023-04-07T13:15:47;102175.78;;;11.49;nan
23321;BME280;33376;51.306;4.752;2023-04-07T13:18:12;102176.91;;;11.90;nan
23321;BME280;33376;51.306;4.752;2023-04-07T13:20:37;102169.81;;;12.12;nan
23321;BME280;33376;51.306;4.752;2023-04-07T13:23:02;102172.91;;;12.23;nan
23321;BME280;33376;51.306;4.752;2023-04-07T13:25:28;102149.47;;;12.32;nan
23321;BME280;33376;51.306;4.752;2023-04-07T13:27:53;102133.94;;;12.43;nan
23321;BME280;33376;51.306;4.752;2023-04-07T13:30:18;102113.25;;;12.50;nan
23321;BME280;33376;51.306;4.752;2023-04-07T13:32:43;102109.88;;;12.86;nan
23321;BME280;33376;51.306;4.752;2023-04-07T13:35:09;102108.16;;;13.05;nan
23321;BME280;33376;51.306;4.752;2023-04-07T13:37:34;102093.88;;;13.08;nan